sensor_id;sensor_type;location;lat;lon;timestamp;P1;durP1;ratioP1;P2;durP2;ratioP2
7154;SDS011;3619;53.784;10.440;2023-04-25T00:00:41;3.10;;;3.00;;
7154;SDS011;3619;53.784;10.440;2023-04-25T00:03:09;2.83;;;2.73;;
7154;SDS011;3619;53.784;10.440;2023-04-25T00:05:36;3.50;;;3.40;;
7154;SDS011;3619;53.784;10.440;2023-04-25T00:08:04;3.40;;;3.30;;
7154;SDS011;3619;53.784;10.440;2023-04-25T00:10:30;3.33;;;3.23;;
7154;SDS011;3619;53.784;10.440;2023-04-25T00:12:57;3.83;;;3.73;;
7154;SDS011;3619;53.784;10.440;2023-04-25T00:15:27;3.77;;;3.67;;
7154;SDS011;3619;53.784;10.440;2023-04-25T00:17:55;3.30;;;3.20;;
7154;SDS011;3619;53.784;10.440;2023-04-25T00:20:23;3.90;;;3.80;;
7154;SDS011;3619;53.784;10.440;2023-04-25T00:22:50;3.73;;;3.63;;
7154;SDS011;3619;53.784;10.440;2023-04-25T00:25:17;4.20;;;4.10;;
7154;SDS011;3619;53.784;10.440;2023-04-25T00:27:44;3.30;;;3.20;;
7154;SDS011;3619;53.784;10.440;2023-04-25T00:30:12;4.30;;;4.20;;
7154;SDS011;3619;53.784;10.440;2023-04-25T00:32:39;3.87;;;3.77;;
7154;SDS011;3619;53.784;10.440;2023-04-25T00:35:06;5.13;;;4.93;;
7154;SDS011;3619;53.784;10.440;2023-04-25T00:37:35;4.23;;;4.13;;
7154;SDS011;3619;53.784;10.440;2023-04-25T00:40:02;4.40;;;4.30;;
7154;SDS011;3619;53.784;10.440;2023-04-25T00:42:32;3.90;;;3.80;;
7154;SDS011;3619;53.784;10.440;2023-04-25T00:45:01;5.00;;;4.80;;
7154;SDS011;3619;53.784;10.440;2023-04-25T00:47:30;5.97;;;5.77;;
7154;SDS011;3619;53.784;10.440;2023-04-25T00:49:57;6.03;;;5.83;;
7154;SDS011;3619;53.784;10.440;2023-04-25T00:52:24;6.73;;;6.53;;
7154;SDS011;3619;53.784;10.440;2023-04-25T00:54:53;7.67;;;7.37;;
7154;SDS011;3619;53.784;10.440;2023-04-25T00:57:19;8.17;;;7.87;;
7154;SDS011;3619;53.784;10.440;2023-04-25T00:59:46;7.67;;;7.37;;
7154;SDS011;3619;53.784;10.440;2023-04-25T01:02:14;7.93;;;7.63;;
7154;SDS011;3619;53.784;10.440;2023-04-25T01:04:40;9.13;;;8.83;;
7154;SDS011;3619;53.784;10.440;2023-04-25T01:07:07;8.73;;;8.43;;
7154;SDS011;3619;53.784;10.440;2023-04-25T01:09:35;7.23;;;6.93;;
7154;SDS011;3619;53.784;10.440;2023-04-25T01:12:04;8.37;;;8.07;;
7154;SDS011;3619;53.784;10.440;2023-04-25T01:14:31;7.77;;;7.47;;
7154;SDS011;3619;53.784;10.440;2023-04-25T01:16:57;7.17;;;6.87;;
7154;SDS011;3619;53.784;10.440;2023-04-25T01:19:25;6.90;;;6.67;;
7154;SDS011;3619;53.784;10.440;2023-04-25T01:21:53;7.17;;;6.87;;
7154;SDS011;3619;53.784;10.440;2023-04-25T01:24:20;7.83;;;7.53;;
7154;SDS011;3619;53.784;10.440;2023-04-25T01:26:47;7.90;;;7.60;;
7154;SDS011;3619;53.784;10.440;2023-04-25T01:29:17;6.37;;;6.17;;
7154;SDS011;3619;53.784;10.440;2023-04-25T01:31:46;6.53;;;6.33;;
7154;SDS011;3619;53.784;10.440;2023-04-25T01:34:13;6.60;;;6.40;;
7154;SDS011;3619;53.784;10.440;2023-04-25T01:36:40;7.87;;;7.57;;
7154;SDS011;3619;53.784;10.440;2023-04-25T01:39:08;7.13;;;6.83;;
7154;SDS011;3619;53.784;10.440;2023-04-25T01:41:36;6.47;;;6.27;;
7154;SDS011;3619;53.784;10.440;2023-04-25T01:44:03;6.03;;;5.83;;
7154;SDS011;3619;53.784;10.440;2023-04-25T01:46:30;5.73;;;5.53;;
7154;SDS011;3619;53.784;10.440;2023-04-25T01:48:57;5.93;;;5.73;;
7154;SDS011;3619;53.784;10.440;2023-04-25T01:51:24;6.43;;;6.23;;
7154;SDS011;3619;53.784;10.440;2023-04-25T01:53:51;6.33;;;6.13;;
7154;SDS011;3619;53.784;10.440;2023-04-25T01:56:20;5.33;;;5.13;;
7154;SDS011;3619;53.784;10.440;2023-04-25T01:58:46;6.97;;;6.73;;
7154;SDS011;3619;53.784;10.440;2023-04-25T02:01:13;6.13;;;5.93;;
7154;SDS011;3619;53.784;10.440;2023-04-25T02:03:40;7.03;;;6.77;;
7154;SDS011;3619;53.784;10.440;2023-04-25T02:06:06;5.90;;;5.70;;
7154;SDS011;3619;53.784;10.440;2023-04-25T02:08:33;4.67;;;4.47;;
7154;SDS011;3619;53.784;10.440;2023-04-25T02:11:02;5.37;;;5.17;;
7154;SDS011;3619;53.784;10.440;2023-04-25T02:13:30;4.20;;;4.10;;
7154;SDS011;3619;53.784;10.440;2023-04-25T02:15:57;4.73;;;4.53;;
7154;SDS011;3619;53.784;10.440;2023-04-25T02:18:24;4.60;;;4.40;;
7154;SDS011;3619;53.784;10.440;2023-04-25T02:20:51;4.80;;;4.60;;
7154;SDS011;3619;53.784;10.440;2023-04-25T02:23:18;4.27;;;4.17;;
7154;SDS011;3619;53.784;10.440;2023-04-25T02:25:45;4.77;;;4.57;;
7154;SDS011;3619;53.784;10.440;2023-04-25T02:28:11;4.37;;;4.27;;
7154;SDS011;3619;53.784;10.440;2023-04-25T02:30:40;3.87;;;3.77;;
7154;SDS011;3619;53.784;10.440;2023-04-25T02:33:06;4.13;;;4.03;;
7154;SDS011;3619;53.784;10.440;2023-04-25T02:35:33;3.70;;;3.60;;
7154;SDS011;3619;53.784;10.440;2023-04-25T02:38:00;3.07;;;2.97;;
7154;SDS011;3619;53.784;10.440;2023-04-25T02:40:27;4.13;;;4.03;;
7154;SDS011;3619;53.784;10.440;2023-04-25T02:42:54;3.43;;;3.33;;
7154;SDS011;3619;53.784;10.440;2023-04-25T02:45:20;3.93;;;3.83;;
7154;SDS011;3619;53.784;10.440;2023-04-25T02:47:48;3.23;;;3.13;;
7154;SDS011;3619;53.784;10.440;2023-04-25T02:50:15;4.50;;;4.33;;
7154;SDS011;3619;53.784;10.440;2023-04-25T02:52:43;3.67;;;3.57;;
7154;SDS011;3619;53.784;10.440;2023-04-25T02:55:10;4.47;;;4.30;;
7154;SDS011;3619;53.784;10.440;2023-04-25T02:57:38;3.67;;;3.57;;
7154;SDS011;3619;53.784;10.440;2023-04-25T03:00:05;4.03;;;3.93;;
7154;SDS011;3619;53.784;10.440;2023-04-25T03:02:32;3.73;;;3.63;;
7154;SDS011;3619;53.784;10.440;2023-04-25T03:05:00;3.73;;;3.63;;
7154;SDS011;3619;53.784;10.440;2023-04-25T03:07:28;3.67;;;3.57;;
7154;SDS011;3619;53.784;10.440;2023-04-25T03:09:54;4.00;;;3.90;;
7154;SDS011;3619;53.784;10.440;2023-04-25T03:12:21;3.73;;;3.63;;
7154;SDS011;3619;53.784;10.440;2023-04-25T03:14:48;3.27;;;3.17;;
7154;SDS011;3619;53.784;10.440;2023-04-25T03:17:15;3.00;;;2.90;;
7154;SDS011;3619;53.784;10.440;2023-04-25T03:19:42;5.27;;;4.97;;
7154;SDS011;3619;53.784;10.440;2023-04-25T03:22:10;3.77;;;3.67;;
7154;SDS011;3619;53.784;10.440;2023-04-25T03:24:36;3.10;;;3.00;;
7154;SDS011;3619;53.784;10.440;2023-04-25T03:27:03;3.93;;;3.83;;
7154;SDS011;3619;53.784;10.440;2023-04-25T03:29:30;4.13;;;4.03;;
7154;SDS011;3619;53.784;10.440;2023-04-25T03:31:57;3.90;;;3.80;;
7154;SDS011;3619;53.784;10.440;2023-04-25T03:34:24;3.90;;;3.80;;
7154;SDS011;3619;53.784;10.440;2023-04-25T03:36:51;3.30;;;3.20;;
7154;SDS011;3619;53.784;10.440;2023-04-25T03:39:19;3.60;;;3.50;;
7154;SDS011;3619;53.784;10.440;2023-04-25T03:41:46;3.77;;;3.67;;
7154;SDS011;3619;53.784;10.440;2023-04-25T03:44:13;3.43;;;3.33;;
7154;SDS011;3619;53.784;10.440;2023-04-25T03:46:39;3.43;;;3.33;;
7154;SDS011;3619;53.784;10.440;2023-04-25T03:49:06;3.10;;;3.00;;
7154;SDS011;3619;53.784;10.440;2023-04-25T03:51:33;3.50;;;3.40;;
7154;SDS011;3619;53.784;10.440;2023-04-25T03:54:00;3.60;;;3.50;;
7154;SDS011;3619;53.784;10.440;2023-04-25T03:56:29;3.53;;;3.43;;
7154;SDS011;3619;53.784;10.440;2023-04-25T03:58:56;3.23;;;3.13;;
7154;SDS011;3619;53.784;10.440;2023-04-25T04:01:23;3.27;;;3.17;;
7154;SDS011;3619;53.784;10.440;2023-04-25T04:03:50;3.00;;;2.90;;
7154;SDS011;3619;53.784;10.440;2023-04-25T04:06:17;2.80;;;2.70;;
7154;SDS011;3619;53.784;10.440;2023-04-25T04:08:45;3.50;;;3.40;;
7154;SDS011;3619;53.784;10.440;2023-04-25T04:11:12;3.43;;;3.33;;
7154;SDS011;3619;53.784;10.440;2023-04-25T04:13:41;3.30;;;3.20;;
7154;SDS011;3619;53.784;10.440;2023-04-25T04:16:07;3.27;;;3.17;;
7154;SDS011;3619;53.784;10.440;2023-04-25T04:18:34;3.23;;;3.13;;
7154;SDS011;3619;53.784;10.440;2023-04-25T04:21:02;3.20;;;3.10;;
7154;SDS011;3619;53.784;10.440;2023-04-25T04:23:29;3.37;;;3.27;;
7154;SDS011;3619;53.784;10.440;2023-04-25T04:25:56;3.33;;;3.23;;
7154;SDS011;3619;53.784;10.440;2023-04-25T04:28:23;3.20;;;3.10;;
7154;SDS011;3619;53.784;10.440;2023-04-25T04:30:51;3.20;;;3.10;;
7154;SDS011;3619;53.784;10.440;2023-04-25T04:33:18;3.27;;;3.17;;
7154;SDS011;3619;53.784;10.440;2023-04-25T04:35:45;3.43;;;3.33;;
7154;SDS011;3619;53.784;10.440;2023-04-25T04:38:13;3.00;;;2.90;;
7154;SDS011;3619;53.784;10.440;2023-04-25T04:40:41;2.97;;;2.87;;
7154;SDS011;3619;53.784;10.440;2023-04-25T04:43:08;3.13;;;3.03;;
7154;SDS011;3619;53.784;10.440;2023-04-25T04:45:35;3.80;;;3.60;;
7154;SDS011;3619;53.784;10.440;2023-04-25T04:48:05;2.70;;;2.60;;
7154;SDS011;3619;53.784;10.440;2023-04-25T04:50:31;2.63;;;2.53;;
7154;SDS011;3619;53.784;10.440;2023-04-25T04:52:59;2.80;;;2.70;;
7154;SDS011;3619;53.784;10.440;2023-04-25T04:55:25;3.27;;;3.17;;
7154;SDS011;3619;53.784;10.440;2023-04-25T04:57:52;2.93;;;2.83;;
7154;SDS011;3619;53.784;10.440;2023-04-25T05:00:19;3.00;;;2.90;;
7154;SDS011;3619;53.784;10.440;2023-04-25T05:02:46;2.23;;;2.13;;
7154;SDS011;3619;53.784;10.440;2023-04-25T05:05:15;2.70;;;2.60;;
7154;SDS011;3619;53.784;10.440;2023-04-25T05:07:42;2.40;;;2.30;;
7154;SDS011;3619;53.784;10.440;2023-04-25T05:10:09;2.40;;;2.30;;
7154;SDS011;3619;53.784;10.440;2023-04-25T05:12:36;2.57;;;2.47;;
7154;SDS011;3619;53.784;10.440;2023-04-25T05:15:03;2.60;;;2.50;;
7154;SDS011;3619;53.784;10.440;2023-04-25T05:17:31;2.27;;;2.17;;
7154;SDS011;3619;53.784;10.440;2023-04-25T05:19:57;2.40;;;2.30;;
7154;SDS011;3619;53.784;10.440;2023-04-25T05:22:26;2.27;;;2.17;;
7154;SDS011;3619;53.784;10.440;2023-04-25T05:24:53;2.67;;;2.57;;
7154;SDS011;3619;53.784;10.440;2023-04-25T05:27:20;2.20;;;2.10;;
7154;SDS011;3619;53.784;10.440;2023-04-25T05:29:46;2.17;;;2.07;;
7154;SDS011;3619;53.784;10.440;2023-04-25T05:32:13;3.50;;;3.40;;
7154;SDS011;3619;53.784;10.440;2023-04-25T05:34:40;2.40;;;2.30;;
7154;SDS011;3619;53.784;10.440;2023-04-25T05:37:07;2.40;;;2.30;;
7154;SDS011;3619;53.784;10.440;2023-04-25T05:39:35;2.13;;;2.03;;
7154;SDS011;3619;53.784;10.440;2023-04-25T05:42:02;2.40;;;2.30;;
7154;SDS011;3619;53.784;10.440;2023-04-25T05:44:29;3.00;;;2.90;;
7154;SDS011;3619;53.784;10.440;2023-04-25T05:46:56;1.77;;;1.77;;
7154;SDS011;3619;53.784;10.440;2023-04-25T05:49:23;2.20;;;2.10;;
7154;SDS011;3619;53.784;10.440;2023-04-25T05:51:50;3.50;;;3.20;;
7154;SDS011;3619;53.784;10.440;2023-04-25T05:54:17;2.70;;;2.60;;
7154;SDS011;3619;53.784;10.440;2023-04-25T05:56:45;2.23;;;2.13;;
7154;SDS011;3619;53.784;10.440;2023-04-25T05:59:12;2.23;;;2.13;;
7154;SDS011;3619;53.784;10.440;2023-04-25T06:01:39;2.53;;;2.43;;
7154;SDS011;3619;53.784;10.440;2023-04-25T06:04:06;2.17;;;2.07;;
7154;SDS011;3619;53.784;10.440;2023-04-25T06:06:34;2.30;;;2.20;;
7154;SDS011;3619;53.784;10.440;2023-04-25T06:09:01;2.13;;;2.03;;
7154;SDS011;3619;53.784;10.440;2023-04-25T06:11:28;2.10;;;2.00;;
7154;SDS011;3619;53.784;10.440;2023-04-25T06:13:56;2.00;;;1.90;;
7154;SDS011;3619;53.784;10.440;2023-04-25T06:16:23;2.03;;;1.93;;
7154;SDS011;3619;53.784;10.440;2023-04-25T06:18:50;2.10;;;2.00;;
7154;SDS011;3619;53.784;10.440;2023-04-25T06:21:17;1.97;;;1.90;;
7154;SDS011;3619;53.784;10.440;2023-04-25T06:23:44;1.97;;;1.90;;
7154;SDS011;3619;53.784;10.440;2023-04-25T06:26:11;1.90;;;1.83;;
7154;SDS011;3619;53.784;10.440;2023-04-25T06:28:40;2.50;;;2.40;;
7154;SDS011;3619;53.784;10.440;2023-04-25T06:31:08;2.07;;;1.97;;
7154;SDS011;3619;53.784;10.440;2023-04-25T06:33:35;2.23;;;2.13;;
7154;SDS011;3619;53.784;10.440;2023-04-25T06:36:01;1.70;;;1.70;;
7154;SDS011;3619;53.784;10.440;2023-04-25T06:38:28;1.90;;;1.83;;
7154;SDS011;3619;53.784;10.440;2023-04-25T06:40:56;1.83;;;1.80;;
7154;SDS011;3619;53.784;10.440;2023-04-25T06:43:23;1.70;;;1.70;;
7154;SDS011;3619;53.784;10.440;2023-04-25T06:45:50;1.70;;;1.70;;
7154;SDS011;3619;53.784;10.440;2023-04-25T06:48:18;2.27;;;2.17;;
7154;SDS011;3619;53.784;10.440;2023-04-25T06:50:45;2.00;;;1.90;;
7154;SDS011;3619;53.784;10.440;2023-04-25T06:53:12;1.57;;;1.57;;
7154;SDS011;3619;53.784;10.440;2023-04-25T06:55:39;1.93;;;1.83;;
7154;SDS011;3619;53.784;10.440;2023-04-25T06:58:05;1.80;;;1.80;;
7154;SDS011;3619;53.784;10.440;2023-04-25T07:00:33;2.03;;;1.93;;
7154;SDS011;3619;53.784;10.440;2023-04-25T07:03:00;1.67;;;1.67;;
7154;SDS011;3619;53.784;10.440;2023-04-25T07:05:28;2.10;;;2.00;;
7154;SDS011;3619;53.784;10.440;2023-04-25T07:07:55;2.03;;;1.93;;
7154;SDS011;3619;53.784;10.440;2023-04-25T07:10:22;2.30;;;2.20;;
7154;SDS011;3619;53.784;10.440;2023-04-25T07:12:50;1.70;;;1.70;;
7154;SDS011;3619;53.784;10.440;2023-04-25T07:15:17;2.20;;;2.10;;
7154;SDS011;3619;53.784;10.440;2023-04-25T07:17:44;2.13;;;2.03;;
7154;SDS011;3619;53.784;10.440;2023-04-25T07:20:11;1.70;;;1.70;;
7154;SDS011;3619;53.784;10.440;2023-04-25T07:22:39;1.63;;;1.63;;
7154;SDS011;3619;53.784;10.440;2023-04-25T07:25:06;1.63;;;1.63;;
7154;SDS011;3619;53.784;10.440;2023-04-25T07:27:34;2.00;;;1.90;;
7154;SDS011;3619;53.784;10.440;2023-04-25T07:30:00;1.73;;;1.73;;
7154;SDS011;3619;53.784;10.440;2023-04-25T07:32:27;1.80;;;1.80;;
7154;SDS011;3619;53.784;10.440;2023-04-25T07:34:54;2.00;;;1.90;;
7154;SDS011;3619;53.784;10.440;2023-04-25T07:37:21;1.57;;;1.57;;
7154;SDS011;3619;53.784;10.440;2023-04-25T07:39:49;1.50;;;1.50;;
7154;SDS011;3619;53.784;10.440;2023-04-25T07:42:16;1.53;;;1.53;;
7154;SDS011;3619;53.784;10.440;2023-04-25T07:44:42;1.60;;;1.60;;
7154;SDS011;3619;53.784;10.440;2023-04-25T07:47:09;1.67;;;1.67;;
7154;SDS011;3619;53.784;10.440;2023-04-25T07:49:36;1.63;;;1.63;;
7154;SDS011;3619;53.784;10.440;2023-04-25T07:52:04;2.37;;;2.27;;
7154;SDS011;3619;53.784;10.440;2023-04-25T07:54:32;1.57;;;1.57;;
7154;SDS011;3619;53.784;10.440;2023-04-25T07:57:00;1.57;;;1.57;;
7154;SDS011;3619;53.784;10.440;2023-04-25T07:59:27;1.77;;;1.77;;
7154;SDS011;3619;53.784;10.440;2023-04-25T08:01:54;1.77;;;1.77;;
7154;SDS011;3619;53.784;10.440;2023-04-25T08:04:22;1.73;;;1.73;;
7154;SDS011;3619;53.784;10.440;2023-04-25T08:06:48;1.80;;;1.80;;
7154;SDS011;3619;53.784;10.440;2023-04-25T08:09:16;3.87;;;3.67;;
7154;SDS011;3619;53.784;10.440;2023-04-25T08:11:43;4.90;;;3.37;;
7154;SDS011;3619;53.784;10.440;2023-04-25T08:14:11;1.40;;;1.40;;
7154;SDS011;3619;53.784;10.440;2023-04-25T08:16:38;1.70;;;1.70;;
7154;SDS011;3619;53.784;10.440;2023-04-25T08:19:05;1.40;;;1.40;;
7154;SDS011;3619;53.784;10.440;2023-04-25T08:21:32;1.63;;;1.63;;
7154;SDS011;3619;53.784;10.440;2023-04-25T08:23:58;1.60;;;1.60;;
7154;SDS011;3619;53.784;10.440;2023-04-25T08:26:25;1.40;;;1.40;;
7154;SDS011;3619;53.784;10.440;2023-04-25T08:28:52;1.70;;;1.70;;
7154;SDS011;3619;53.784;10.440;2023-04-25T08:31:20;1.80;;;1.80;;
7154;SDS011;3619;53.784;10.440;2023-04-25T08:33:47;1.70;;;1.70;;
7154;SDS011;3619;53.784;10.440;2023-04-25T08:36:14;1.70;;;1.70;;
7154;SDS011;3619;53.784;10.440;2023-04-25T08:38:42;1.60;;;1.60;;
7154;SDS011;3619;53.784;10.440;2023-04-25T08:41:09;1.60;;;1.60;;
7154;SDS011;3619;53.784;10.440;2023-04-25T08:43:38;1.70;;;1.70;;
7154;SDS011;3619;53.784;10.440;2023-04-25T08:46:09;1.80;;;1.80;;
7154;SDS011;3619;53.784;10.440;2023-04-25T08:48:38;2.10;;;2.00;;
7154;SDS011;3619;53.784;10.440;2023-04-25T08:51:07;2.37;;;2.27;;
7154;SDS011;3619;53.784;10.440;2023-04-25T08:53:34;1.80;;;1.80;;
7154;SDS011;3619;53.784;10.440;2023-04-25T08:56:02;1.97;;;1.87;;
7154;SDS011;3619;53.784;10.440;2023-04-25T08:58:29;1.80;;;1.80;;
7154;SDS011;3619;53.784;10.440;2023-04-25T09:00:56;1.80;;;1.80;;
7154;SDS011;3619;53.784;10.440;2023-04-25T09:03:23;1.57;;;1.57;;
7154;SDS011;3619;53.784;10.440;2023-04-25T09:05:54;1.57;;;1.57;;
7154;SDS011;3619;53.784;10.440;2023-04-25T09:08:24;1.80;;;1.80;;
7154;SDS011;3619;53.784;10.440;2023-04-25T09:10:53;1.70;;;1.70;;
7154;SDS011;3619;53.784;10.440;2023-04-25T09:13:24;1.67;;;1.67;;
7154;SDS011;3619;53.784;10.440;2023-04-25T09:15:52;1.50;;;1.50;;
7154;SDS011;3619;53.784;10.440;2023-04-25T09:18:23;1.53;;;1.53;;
7154;SDS011;3619;53.784;10.440;2023-04-25T09:20:55;1.50;;;1.50;;
7154;SDS011;3619;53.784;10.440;2023-04-25T09:23:23;1.60;;;1.60;;
7154;SDS011;3619;53.784;10.440;2023-04-25T09:25:56;1.60;;;1.60;;
7154;SDS011;3619;53.784;10.440;2023-04-25T09:28:23;2.20;;;2.10;;
7154;SDS011;3619;53.784;10.440;2023-04-25T09:30:54;1.47;;;1.47;;
7154;SDS011;3619;53.784;10.440;2023-04-25T09:33:26;1.60;;;1.60;;
7154;SDS011;3619;53.784;10.440;2023-04-25T09:36:01;1.60;;;1.60;;
7154;SDS011;3619;53.784;10.440;2023-04-25T09:38:29;1.50;;;1.50;;
7154;SDS011;3619;53.784;10.440;2023-04-25T09:40:57;1.50;;;1.50;;
7154;SDS011;3619;53.784;10.440;2023-04-25T09:43:25;1.43;;;1.43;;
7154;SDS011;3619;53.784;10.440;2023-04-25T09:45:53;1.60;;;1.60;;
7154;SDS011;3619;53.784;10.440;2023-04-25T09:48:22;1.60;;;1.60;;
7154;SDS011;3619;53.784;10.440;2023-04-25T09:53:36;1.57;;;1.57;;
7154;SDS011;3619;53.784;10.440;2023-04-25T09:56:04;2.13;;;2.03;;
7154;SDS011;3619;53.784;10.440;2023-04-25T09:58:32;2.10;;;2.00;;
7154;SDS011;3619;53.784;10.440;2023-04-25T10:01:00;1.70;;;1.70;;
7154;SDS011;3619;53.784;10.440;2023-04-25T10:03:29;1.77;;;1.77;;
7154;SDS011;3619;53.784;10.440;2023-04-25T10:05:59;1.60;;;1.60;;
7154;SDS011;3619;53.784;10.440;2023-04-25T10:08:30;1.63;;;1.63;;
7154;SDS011;3619;53.784;10.440;2023-04-25T10:10:59;2.10;;;2.00;;
7154;SDS011;3619;53.784;10.440;2023-04-25T10:13:28;1.57;;;1.57;;
7154;SDS011;3619;53.784;10.440;2023-04-25T10:15:56;1.40;;;1.40;;
7154;SDS011;3619;53.784;10.440;2023-04-25T10:18:24;1.70;;;1.70;;
7154;SDS011;3619;53.784;10.440;2023-04-25T10:20:54;1.50;;;1.50;;
7154;SDS011;3619;53.784;10.440;2023-04-25T10:23:24;1.60;;;1.60;;
7154;SDS011;3619;53.784;10.440;2023-04-25T10:25:55;1.50;;;1.50;;
7154;SDS011;3619;53.784;10.440;2023-04-25T10:28:22;1.40;;;1.40;;
7154;SDS011;3619;53.784;10.440;2023-04-25T10:31:02;2.17;;;2.07;;
7154;SDS011;3619;53.784;10.440;2023-04-25T10:33:34;1.60;;;1.60;;
7154;SDS011;3619;53.784;10.440;2023-04-25T10:36:14;2.40;;;2.30;;
7154;SDS011;3619;53.784;10.440;2023-04-25T10:38:44;2.50;;;2.40;;
7154;SDS011;3619;53.784;10.440;2023-04-25T10:41:13;2.40;;;2.30;;
7154;SDS011;3619;53.784;10.440;2023-04-25T10:43:40;2.70;;;2.60;;
7154;SDS011;3619;53.784;10.440;2023-04-25T10:46:18;2.23;;;2.13;;
7154;SDS011;3619;53.784;10.440;2023-04-25T10:48:48;2.33;;;2.23;;
7154;SDS011;3619;53.784;10.440;2023-04-25T10:51:16;2.17;;;2.07;;
7154;SDS011;3619;53.784;10.440;2023-04-25T10:53:56;1.70;;;1.70;;
7154;SDS011;3619;53.784;10.440;2023-04-25T10:56:28;2.00;;;1.90;;
7154;SDS011;3619;53.784;10.440;2023-04-25T10:59:06;2.07;;;1.97;;
7154;SDS011;3619;53.784;10.440;2023-04-25T11:01:35;2.10;;;2.00;;
7154;SDS011;3619;53.784;10.440;2023-04-25T11:04:04;1.83;;;1.83;;
7154;SDS011;3619;53.784;10.440;2023-04-25T11:06:34;1.43;;;1.43;;
7154;SDS011;3619;53.784;10.440;2023-04-25T11:09:09;1.80;;;1.80;;
7154;SDS011;3619;53.784;10.440;2023-04-25T11:11:39;1.50;;;1.50;;
7154;SDS011;3619;53.784;10.440;2023-04-25T11:14:12;1.60;;;1.60;;
7154;SDS011;3619;53.784;10.440;2023-04-25T11:16:41;2.57;;;2.47;;
7154;SDS011;3619;53.784;10.440;2023-04-25T11:19:10;1.70;;;1.70;;
7154;SDS011;3619;53.784;10.440;2023-04-25T11:21:37;1.60;;;1.60;;
7154;SDS011;3619;53.784;10.440;2023-04-25T11:24:04;1.40;;;1.40;;
7154;SDS011;3619;53.784;10.440;2023-04-25T11:26:31;1.73;;;1.73;;
7154;SDS011;3619;53.784;10.440;2023-04-25T11:29:00;1.40;;;1.40;;
7154;SDS011;3619;53.784;10.440;2023-04-25T11:31:29;1.67;;;1.67;;
7154;SDS011;3619;53.784;10.440;2023-04-25T11:33:58;1.47;;;1.47;;
7154;SDS011;3619;53.784;10.440;2023-04-25T11:36:26;2.53;;;2.33;;
7154;SDS011;3619;53.784;10.440;2023-04-25T11:38:53;1.40;;;1.40;;
7154;SDS011;3619;53.784;10.440;2023-04-25T11:41:20;1.50;;;1.50;;
7154;SDS011;3619;53.784;10.440;2023-04-25T11:43:52;1.47;;;1.47;;
7154;SDS011;3619;53.784;10.440;2023-04-25T11:46:22;1.83;;;1.80;;
7154;SDS011;3619;53.784;10.440;2023-04-25T11:48:49;2.03;;;1.93;;
7154;SDS011;3619;53.784;10.440;2023-04-25T11:51:16;2.00;;;1.90;;
7154;SDS011;3619;53.784;10.440;2023-04-25T11:53:44;1.73;;;1.73;;
7154;SDS011;3619;53.784;10.440;2023-04-25T11:56:11;1.70;;;1.70;;
7154;SDS011;3619;53.784;10.440;2023-04-25T11:58:54;1.70;;;1.70;;
7154;SDS011;3619;53.784;10.440;2023-04-25T12:01:27;2.10;;;2.00;;
7154;SDS011;3619;53.784;10.440;2023-04-25T12:03:55;1.60;;;1.60;;
7154;SDS011;3619;53.784;10.440;2023-04-25T12:06:25;1.60;;;1.60;;
7154;SDS011;3619;53.784;10.440;2023-04-25T12:09:00;1.37;;;1.37;;
7154;SDS011;3619;53.784;10.440;2023-04-25T12:11:27;30.83;;;3.23;;
7154;SDS011;3619;53.784;10.440;2023-04-25T12:13:56;1.77;;;1.77;;
7154;SDS011;3619;53.784;10.440;2023-04-25T12:16:29;1.77;;;1.77;;
7154;SDS011;3619;53.784;10.440;2023-04-25T12:18:56;1.30;;;1.30;;
7154;SDS011;3619;53.784;10.440;2023-04-25T12:21:29;1.90;;;1.83;;
7154;SDS011;3619;53.784;10.440;2023-04-25T12:24:09;1.60;;;1.60;;
7154;SDS011;3619;53.784;10.440;2023-04-25T12:26:50;1.70;;;1.70;;
7154;SDS011;3619;53.784;10.440;2023-04-25T12:29:18;1.43;;;1.43;;
7154;SDS011;3619;53.784;10.440;2023-04-25T12:31:47;1.50;;;1.50;;
7154;SDS011;3619;53.784;10.440;2023-04-25T12:34:14;1.30;;;1.30;;
7154;SDS011;3619;53.784;10.440;2023-04-25T12:36:41;1.40;;;1.40;;
7154;SDS011;3619;53.784;10.440;2023-04-25T12:39:08;1.20;;;1.20;;
7154;SDS011;3619;53.784;10.440;2023-04-25T12:41:40;1.70;;;1.60;;
7154;SDS011;3619;53.784;10.440;2023-04-25T12:44:10;1.10;;;1.10;;
7154;SDS011;3619;53.784;10.440;2023-04-25T12:46:37;1.20;;;1.20;;
7154;SDS011;3619;53.784;10.440;2023-04-25T12:49:05;1.37;;;1.37;;
7154;SDS011;3619;53.784;10.440;2023-04-25T12:51:33;1.50;;;1.50;;
7154;SDS011;3619;53.784;10.440;2023-04-25T12:54:00;1.60;;;1.60;;
7154;SDS011;3619;53.784;10.440;2023-04-25T12:56:27;1.60;;;1.60;;
7154;SDS011;3619;53.784;10.440;2023-04-25T12:58:54;3.13;;;2.93;;
7154;SDS011;3619;53.784;10.440;2023-04-25T13:01:21;1.50;;;1.50;;
7154;SDS011;3619;53.784;10.440;2023-04-25T13:03:48;1.50;;;1.50;;
7154;SDS011;3619;53.784;10.440;2023-04-25T13:06:17;1.40;;;1.40;;
7154;SDS011;3619;53.784;10.440;2023-04-25T13:08:45;1.43;;;1.43;;
7154;SDS011;3619;53.784;10.440;2023-04-25T13:11:12;1.33;;;1.33;;
7154;SDS011;3619;53.784;10.440;2023-04-25T13:13:39;1.50;;;1.50;;
7154;SDS011;3619;53.784;10.440;2023-04-25T13:16:07;1.40;;;1.40;;
7154;SDS011;3619;53.784;10.440;2023-04-25T13:18:34;1.20;;;1.20;;
7154;SDS011;3619;53.784;10.440;2023-04-25T13:21:03;1.40;;;1.40;;
7154;SDS011;3619;53.784;10.440;2023-04-25T13:23:32;1.40;;;1.40;;
7154;SDS011;3619;53.784;10.440;2023-04-25T13:25:58;2.30;;;2.20;;
7154;SDS011;3619;53.784;10.440;2023-04-25T13:28:26;1.40;;;1.40;;
7154;SDS011;3619;53.784;10.440;2023-04-25T13:30:53;3.40;;;3.30;;
7154;SDS011;3619;53.784;10.440;2023-04-25T13:33:20;1.30;;;1.30;;
7154;SDS011;3619;53.784;10.440;2023-04-25T13:35:48;1.10;;;1.10;;
7154;SDS011;3619;53.784;10.440;2023-04-25T13:38:19;1.43;;;1.43;;
7154;SDS011;3619;53.784;10.440;2023-04-25T13:40:48;1.07;;;1.07;;
7154;SDS011;3619;53.784;10.440;2023-04-25T13:43:17;1.40;;;1.40;;
7154;SDS011;3619;53.784;10.440;2023-04-25T13:45:44;1.33;;;1.33;;
7154;SDS011;3619;53.784;10.440;2023-04-25T13:48:11;1.10;;;1.10;;
7154;SDS011;3619;53.784;10.440;2023-04-25T13:50:38;1.30;;;1.30;;
7154;SDS011;3619;53.784;10.440;2023-04-25T13:53:04;1.20;;;1.20;;
7154;SDS011;3619;53.784;10.440;2023-04-25T13:55:31;1.23;;;1.23;;
7154;SDS011;3619;53.784;10.440;2023-04-25T13:58:01;1.40;;;1.40;;
7154;SDS011;3619;53.784;10.440;2023-04-25T14:00:32;1.50;;;1.50;;
7154;SDS011;3619;53.784;10.440;2023-04-25T14:03:00;1.40;;;1.40;;
7154;SDS011;3619;53.784;10.440;2023-04-25T14:05:29;1.43;;;1.43;;
7154;SDS011;3619;53.784;10.440;2023-04-25T14:07:57;1.40;;;1.40;;
7154;SDS011;3619;53.784;10.440;2023-04-25T14:10:24;1.20;;;1.20;;
7154;SDS011;3619;53.784;10.440;2023-04-25T14:12:51;1.23;;;1.23;;
7154;SDS011;3619;53.784;10.440;2023-04-25T14:15:22;1.17;;;1.17;;
7154;SDS011;3619;53.784;10.440;2023-04-25T14:17:50;1.00;;;1.00;;
7154;SDS011;3619;53.784;10.440;2023-04-25T14:20:20;1.07;;;1.07;;
7154;SDS011;3619;53.784;10.440;2023-04-25T14:22:51;2.30;;;2.20;;
7154;SDS011;3619;53.784;10.440;2023-04-25T14:25:19;1.20;;;1.20;;
7154;SDS011;3619;53.784;10.440;2023-04-25T14:27:46;2.17;;;2.07;;
7154;SDS011;3619;53.784;10.440;2023-04-25T14:30:16;1.70;;;1.70;;
7154;SDS011;3619;53.784;10.440;2023-04-25T14:32:47;3.17;;;2.87;;
7154;SDS011;3619;53.784;10.440;2023-04-25T14:35:17;2.00;;;1.90;;
7154;SDS011;3619;53.784;10.440;2023-04-25T14:37:49;1.70;;;1.70;;
7154;SDS011;3619;53.784;10.440;2023-04-25T14:40:16;2.17;;;2.07;;
7154;SDS011;3619;53.784;10.440;2023-04-25T14:42:43;1.70;;;1.70;;
7154;SDS011;3619;53.784;10.440;2023-04-25T14:45:11;1.53;;;1.53;;
7154;SDS011;3619;53.784;10.440;2023-04-25T14:47:38;1.70;;;1.70;;
7154;SDS011;3619;53.784;10.440;2023-04-25T14:50:07;1.80;;;1.80;;
7154;SDS011;3619;53.784;10.440;2023-04-25T14:52:34;2.20;;;2.10;;
7154;SDS011;3619;53.784;10.440;2023-04-25T14:55:02;2.03;;;1.93;;
7154;SDS011;3619;53.784;10.440;2023-04-25T14:57:30;2.30;;;2.20;;
7154;SDS011;3619;53.784;10.440;2023-04-25T14:59:57;2.20;;;2.10;;
7154;SDS011;3619;53.784;10.440;2023-04-25T15:02:24;1.67;;;1.67;;
7154;SDS011;3619;53.784;10.440;2023-04-25T15:04:51;2.30;;;2.20;;
7154;SDS011;3619;53.784;10.440;2023-04-25T15:07:19;2.00;;;1.90;;